Wabedo, Minnesota
Current Conditions -  °F | °C
As of 5:16 AM on Saturday 20 Dec 2014 (Local Time) from KXVG Reporting Station
Haze Haze  
Wind Chill: 21°   Ceiling: 400
Heat Index: 28°   Visibility: 2.5mi
Dew Point: 28°   Wind: 7mph
Humidity: 100%   Direction: 170°S
Pressure: 30.05"   Gusts: NA
Location:  47.0632°N, 94.1534°W
Report Text: KXVG 201116Z AUTO 17006KT 2 1/2SM BR OVC004 M02/M02 A3005 RMK AO2
Loading
Personal Weather Stations






























Interactive Weather Map New forecast layout! Learn more

10-Day Weather Forecast

Advertisements
Track Severe Weather on mobile